createdAt,value
2018-02-07T00:00:11.957Z,26.73
2018-02-07T00:02:38.405Z,26.55
2018-02-07T00:05:04.838Z,26.15
2018-02-07T00:07:31.670Z,26.67
2018-02-07T00:09:58.186Z,26.20
2018-02-07T00:12:24.622Z,26.80
2018-02-07T00:14:51.198Z,26.77
2018-02-07T00:17:19.614Z,26.90
2018-02-07T00:19:46.155Z,28.62
2018-02-07T00:22:13.455Z,27.17
2018-02-07T00:24:40.129Z,29.08
2018-02-07T00:27:07.583Z,27.45
2018-02-07T00:29:34.231Z,27.13
2018-02-07T00:32:00.788Z,25.98
2018-02-07T00:34:27.552Z,26.37
2018-02-07T00:36:54.876Z,25.80
2018-02-07T00:39:21.380Z,26.65
2018-02-07T00:41:47.942Z,26.00
2018-02-07T00:44:14.603Z,25.12
2018-02-07T00:46:41.161Z,25.47
2018-02-07T00:49:08.323Z,25.33
2018-02-07T00:51:35.552Z,26.30
2018-02-07T00:54:01.960Z,26.55
2018-02-07T00:56:29.084Z,26.20
2018-02-07T00:58:56.398Z,28.05
2018-02-07T01:01:23.865Z,27.60
2018-02-07T01:03:50.345Z,27.00
2018-02-07T01:06:17.505Z,27.35
2018-02-07T01:08:44.664Z,27.05
2018-02-07T01:11:11.076Z,26.40
2018-02-07T01:13:37.499Z,26.55
2018-02-07T01:16:03.956Z,27.42
2018-02-07T01:18:30.652Z,28.10
2018-02-07T01:20:57.803Z,28.30
2018-02-07T01:23:25.162Z,27.05
2018-02-07T01:25:51.697Z,28.48
2018-02-07T01:28:18.129Z,29.20
2018-02-07T01:30:44.554Z,27.00
2018-02-07T01:33:11.613Z,28.23
2018-02-07T01:35:38.344Z,27.55
2018-02-07T01:38:04.820Z,28.83
2018-02-07T01:40:32.234Z,27.40
2018-02-07T01:42:58.859Z,26.77
2018-02-07T01:45:26.031Z,27.90
2018-02-07T01:47:53.311Z,27.13
2018-02-07T01:50:20.011Z,27.13
2018-02-07T01:52:46.429Z,27.02
2018-02-07T01:55:12.844Z,27.47
2018-02-07T01:57:40.258Z,27.70
2018-02-07T02:00:06.812Z,27.13
2018-02-07T02:02:33.258Z,26.37
2018-02-07T02:04:59.973Z,27.10
2018-02-07T02:07:27.305Z,27.45
2018-02-07T02:09:54.682Z,28.38
2018-02-07T02:12:21.133Z,26.52
2018-02-07T02:14:47.553Z,28.08
2018-02-07T02:17:14.735Z,27.95
2018-02-07T02:19:42.144Z,27.35
2018-02-07T02:22:08.566Z,26.90
2018-02-07T02:24:35.364Z,26.20
2018-02-07T02:27:01.927Z,26.45
2018-02-07T02:29:28.453Z,26.90
2018-02-07T02:31:54.937Z,26.40
2018-02-07T02:34:21.680Z,27.02
2018-02-07T02:36:48.158Z,27.13
2018-02-07T02:39:14.685Z,28.10
2018-02-07T02:41:41.154Z,26.85
2018-02-07T02:44:08.760Z,26.95
2018-02-07T02:46:35.154Z,26.30
2018-02-07T02:49:01.577Z,27.15
2018-02-07T02:51:27.981Z,26.20
2018-02-07T02:53:54.427Z,26.25
2018-02-07T02:56:20.859Z,25.03
2018-02-07T02:58:47.263Z,24.90
2018-02-07T03:01:13.944Z,25.20
2018-02-07T03:03:40.502Z,26.83
2018-02-07T03:06:07.060Z,26.20
2018-02-07T03:08:34.645Z,26.23
2018-02-07T03:11:01.914Z,26.02
2018-02-07T03:13:28.365Z,25.27
2018-02-07T03:15:55.511Z,25.37
2018-02-07T03:18:22.963Z,26.12
2018-02-07T03:20:49.383Z,25.50
2018-02-07T03:23:15.784Z,26.15
2018-02-07T03:25:42.204Z,26.92
2018-02-07T03:28:08.614Z,27.50
2018-02-07T03:30:35.105Z,26.45
2018-02-07T03:33:01.532Z,27.20
2018-02-07T03:35:28.000Z,28.27
2018-02-07T03:37:55.173Z,27.87
2018-02-07T03:40:22.909Z,27.20
2018-02-07T03:42:49.427Z,26.55
2018-02-07T03:45:16.491Z,27.23
2018-02-07T03:47:43.638Z,26.75
2018-02-07T03:50:10.020Z,26.87
2018-02-07T03:52:37.176Z,28.27
2018-02-07T03:55:04.316Z,28.17
2018-02-07T03:57:30.821Z,28.45
2018-02-07T03:59:58.200Z,28.30
2018-02-07T04:02:25.205Z,27.80
2018-02-07T04:04:51.626Z,27.37
2018-02-07T04:07:18.028Z,28.73
2018-02-07T04:09:44.430Z,28.17
2018-02-07T04:12:11.637Z,28.52
2018-02-07T04:14:38.040Z,28.85
2018-02-07T04:17:04.441Z,29.90
2018-02-07T04:19:30.971Z,31.70
2018-02-07T04:21:58.245Z,29.25
2018-02-07T04:24:25.417Z,29.60
2018-02-07T04:26:52.573Z,28.45
2018-02-07T04:29:19.710Z,29.80
2018-02-07T04:31:46.222Z,28.15
2018-02-07T04:34:12.639Z,28.62
2018-02-07T04:36:39.130Z,27.77
2018-02-07T04:39:06.802Z,28.52
2018-02-07T04:41:34.185Z,28.48
2018-02-07T04:44:01.467Z,26.92
2018-02-07T04:46:28.636Z,27.50
2018-02-07T04:48:55.809Z,28.52
2018-02-07T04:51:23.084Z,27.73
2018-02-07T04:53:49.502Z,28.38
2018-02-07T04:56:15.919Z,28.20
2018-02-07T04:58:42.324Z,27.83
2018-02-07T05:01:09.626Z,29.48
2018-02-07T05:03:36.082Z,27.20
2018-02-07T05:06:02.531Z,29.97
2018-02-07T05:08:29.724Z,28.90
2018-02-07T05:10:56.163Z,27.77
2018-02-07T05:13:23.539Z,28.02
2018-02-07T05:15:50.718Z,28.30
2018-02-07T05:18:17.114Z,28.60
2018-02-07T05:20:43.522Z,27.87
2018-02-07T05:23:10.654Z,28.40
2018-02-07T05:25:37.084Z,27.45
2018-02-07T05:28:03.489Z,28.62
2018-02-07T05:30:29.875Z,28.10
2018-02-07T05:32:56.287Z,29.33
2018-02-07T05:35:22.771Z,29.23
2018-02-07T05:37:49.194Z,29.20
2018-02-07T05:40:15.684Z,29.37
2018-02-07T05:42:42.874Z,29.17
2018-02-07T05:45:09.343Z,32.80
2018-02-07T05:47:36.459Z,35.20
2018-02-07T05:50:03.245Z,28.77
2018-02-07T05:52:31.307Z,28.60
2018-02-07T05:54:58.510Z,31.00
2018-02-07T05:57:25.748Z,29.30
2018-02-07T05:59:52.242Z,29.00
2018-02-07T06:02:19.385Z,29.77
2018-02-07T06:04:45.900Z,30.05
2018-02-07T06:07:12.429Z,29.25
2018-02-07T06:09:39.603Z,28.17
2018-02-07T06:12:06.465Z,30.25
2018-02-07T06:14:33.740Z,28.12
2018-02-07T06:17:00.937Z,30.85
2018-02-07T06:19:27.328Z,29.90
2018-02-07T06:21:53.825Z,29.70
2018-02-07T06:24:21.148Z,30.08
2018-02-07T06:26:47.657Z,29.58
2018-02-07T06:29:14.931Z,30.08
2018-02-07T06:31:42.081Z,31.80
2018-02-07T06:34:08.477Z,30.00
2018-02-07T06:36:35.020Z,30.80
2018-02-07T06:39:01.438Z,39.22
2018-02-07T06:41:28.156Z,50.38
2018-02-07T06:43:55.211Z,40.12
2018-02-07T06:46:21.658Z,33.20
2018-02-07T06:48:48.801Z,45.38
2018-02-07T06:51:15.287Z,36.72
2018-02-07T06:53:42.451Z,36.33
2018-02-07T06:56:09.733Z,35.53
2018-02-07T06:58:36.903Z,31.62
2018-02-07T07:01:04.061Z,30.33
2018-02-07T07:03:31.220Z,31.12
2018-02-07T07:05:57.638Z,30.27
2018-02-07T07:08:24.112Z,31.67
2018-02-07T07:10:50.545Z,32.10
2018-02-07T07:13:16.952Z,35.20
2018-02-07T07:15:43.367Z,256.35
2018-02-07T07:18:09.787Z,71.87
2018-02-07T07:20:36.237Z,58.67
2018-02-07T07:23:03.393Z,45.22
2018-02-07T07:25:30.570Z,49.22
2018-02-07T07:27:57.754Z,49.22
2018-02-07T07:30:25.028Z,43.55
2018-02-07T07:32:52.198Z,39.67
2018-02-07T07:35:19.335Z,39.67
2018-02-07T07:37:46.499Z,36.95
2018-02-07T07:40:13.946Z,38.88
2018-02-07T07:42:40.391Z,44.50
2018-02-07T07:45:06.834Z,42.35
2018-02-07T07:47:34.108Z,41.28
2018-02-07T07:50:01.380Z,71.70
2018-02-07T07:52:28.547Z,68.30
2018-02-07T07:54:55.681Z,101.15
2018-02-07T07:57:22.181Z,69.28
2018-02-07T07:59:49.341Z,55.45
2018-02-07T08:02:17.583Z,53.67
2018-02-07T08:04:44.067Z,35.17
2018-02-07T08:07:10.474Z,31.97
2018-02-07T08:09:36.870Z,31.60
2018-02-07T08:12:03.276Z,29.35
2018-02-07T08:14:29.700Z,28.12
2018-02-07T08:16:56.108Z,28.35
2018-02-07T08:19:22.519Z,31.33
2018-02-07T08:21:49.517Z,25.88
2018-02-07T08:24:15.959Z,29.05
2018-02-07T08:26:43.237Z,28.30
2018-02-07T08:29:09.705Z,31.98
2018-02-07T08:31:36.249Z,36.80
2018-02-07T08:34:03.449Z,32.85
2018-02-07T08:36:31.310Z,30.00
2018-02-07T08:38:57.978Z,32.20
2018-02-07T08:41:24.530Z,29.20
2018-02-07T08:43:51.189Z,30.75
2018-02-07T08:46:18.347Z,29.55
2018-02-07T08:48:45.504Z,31.87
2018-02-07T08:51:11.989Z,29.55
2018-02-07T08:53:39.264Z,30.15
2018-02-07T08:56:06.418Z,30.90
2018-02-07T08:58:33.710Z,30.88
2018-02-07T09:01:00.986Z,37.00
2018-02-07T09:03:28.156Z,32.50
2018-02-07T09:05:55.540Z,31.37
2018-02-07T09:08:22.091Z,33.30
2018-02-07T09:10:49.365Z,28.90
2018-02-07T09:13:16.537Z,30.30
2018-02-07T09:15:43.764Z,30.83
2018-02-07T09:18:10.267Z,30.15
2018-02-07T09:20:37.416Z,31.20
2018-02-07T09:23:03.813Z,29.60
2018-02-07T09:25:30.253Z,29.45
2018-02-07T09:27:57.439Z,31.70
2018-02-07T09:30:23.837Z,30.60
2018-02-07T09:32:50.335Z,31.70
2018-02-07T09:35:17.608Z,33.05
2018-02-07T09:37:44.757Z,32.38
2018-02-07T09:40:11.201Z,30.08
2018-02-07T09:42:37.650Z,31.48
2018-02-07T09:45:04.244Z,32.65
2018-02-07T09:47:31.526Z,30.12
2018-02-07T09:49:57.981Z,29.83
2018-02-07T09:52:25.185Z,28.45
2018-02-07T09:54:51.598Z,31.60
2018-02-07T09:57:18.781Z,30.88
2018-02-07T09:59:46.064Z,31.15
2018-02-07T10:02:12.532Z,29.95
2018-02-07T10:04:38.938Z,29.27
2018-02-07T10:07:05.375Z,29.27
2018-02-07T10:09:32.905Z,29.50
2018-02-07T10:11:59.461Z,31.25
2018-02-07T10:14:26.592Z,29.50
2018-02-07T10:16:53.195Z,29.98
2018-02-07T10:19:20.467Z,29.70
2018-02-07T10:21:47.742Z,29.75
2018-02-07T10:24:14.300Z,30.40
2018-02-07T10:26:41.576Z,30.30
2018-02-07T10:29:08.031Z,31.87
2018-02-07T10:31:34.487Z,31.00
2018-02-07T10:34:01.761Z,29.58
2018-02-07T10:36:28.921Z,28.65
2018-02-07T10:38:56.873Z,29.60
2018-02-07T10:41:23.318Z,29.45
2018-02-07T10:43:49.836Z,29.20
2018-02-07T10:46:16.290Z,30.40
2018-02-07T10:48:43.566Z,30.55
2018-02-07T10:51:10.023Z,29.40
2018-02-07T10:53:36.479Z,28.75
2018-02-07T10:56:03.756Z,29.73
2018-02-07T10:58:30.413Z,29.50
2018-02-07T11:00:56.813Z,28.98
2018-02-07T11:03:24.185Z,29.37
2018-02-07T11:05:50.702Z,27.37
2018-02-07T11:08:17.976Z,29.90
2018-02-07T11:10:45.163Z,29.60
2018-02-07T11:13:11.707Z,28.73
2018-02-07T11:15:38.265Z,30.10
2018-02-07T11:18:05.515Z,28.80
2018-02-07T11:20:32.005Z,28.77
2018-02-07T11:22:58.519Z,28.83
2018-02-07T11:25:25.004Z,28.80
2018-02-07T11:28:10.082Z,27.80
2018-02-07T11:30:36.743Z,28.85
2018-02-07T11:33:03.387Z,29.30
2018-02-07T11:35:46.324Z,30.73
2018-02-07T11:38:12.883Z,29.92
2018-02-07T11:40:40.259Z,31.52
2018-02-07T11:43:07.519Z,30.23
2018-02-07T11:45:34.744Z,29.87
2018-02-07T11:48:01.196Z,29.65
2018-02-07T11:50:27.687Z,29.97
2018-02-07T11:52:54.380Z,30.73
2018-02-07T11:55:21.654Z,29.50
2018-02-07T11:57:48.808Z,29.75
2018-02-07T12:00:15.288Z,29.60
2018-02-07T12:02:41.709Z,29.85
2018-02-07T12:05:09.610Z,30.08
2018-02-07T12:07:36.084Z,29.80
2018-02-07T12:10:03.286Z,31.98
2018-02-07T12:12:29.818Z,34.17
2018-02-07T12:14:56.213Z,30.98
2018-02-07T12:17:22.729Z,29.63
2018-02-07T12:19:49.179Z,30.52
2018-02-07T12:22:16.337Z,32.85
2018-02-07T12:24:43.521Z,31.67
2018-02-07T12:27:09.983Z,31.80
2018-02-07T12:29:37.165Z,33.80
2018-02-07T12:32:03.604Z,32.63
2018-02-07T12:34:30.796Z,32.47
2018-02-07T12:36:57.476Z,31.45
2018-02-07T12:39:24.002Z,32.00
2018-02-07T12:41:51.481Z,34.60
2018-02-07T12:44:18.757Z,32.78
2018-02-07T12:46:45.627Z,33.73
2018-02-07T12:49:12.387Z,45.67
2018-02-07T12:51:38.942Z,41.93
2018-02-07T12:54:06.217Z,37.50
2018-02-07T12:56:32.773Z,34.55
2018-02-07T12:58:59.956Z,31.58
2018-02-07T13:01:26.416Z,33.13
2018-02-07T13:03:52.941Z,31.67
2018-02-07T13:06:19.420Z,30.42
2018-02-07T13:08:45.974Z,32.95
2018-02-07T13:11:13.287Z,33.05
2018-02-07T13:13:39.732Z,32.47
2018-02-07T13:16:06.227Z,31.47
2018-02-07T13:18:32.642Z,34.00
2018-02-07T13:20:59.074Z,30.77
2018-02-07T13:23:26.224Z,29.70
2018-02-07T13:25:52.804Z,30.37
2018-02-07T13:28:19.956Z,39.03
2018-02-07T13:30:46.505Z,31.73
2018-02-07T13:33:12.994Z,32.78
2018-02-07T13:35:39.406Z,32.10
2018-02-07T13:38:05.903Z,32.88
2018-02-07T13:40:33.062Z,32.87
2018-02-07T13:43:00.214Z,32.95
2018-02-07T13:45:26.626Z,33.15
2018-02-07T13:47:53.569Z,36.60
2018-02-07T13:50:20.729Z,37.53
2018-02-07T13:52:47.997Z,36.65
2018-02-07T13:55:14.501Z,39.83
2018-02-07T13:57:40.901Z,41.60
2018-02-07T14:00:07.401Z,65.28
2018-02-07T14:02:33.814Z,44.20
2018-02-07T14:05:00.296Z,37.67
2018-02-07T14:07:27.574Z,37.80
2018-02-07T14:09:54.726Z,36.97
2018-02-07T14:12:21.863Z,37.67
2018-02-07T14:14:48.371Z,36.63
2018-02-07T14:17:15.543Z,35.75
2018-02-07T14:19:42.719Z,36.78
2018-02-07T14:22:09.224Z,36.40
2018-02-07T14:24:35.730Z,35.30
2018-02-07T14:27:03.004Z,58.60
2018-02-07T14:29:30.278Z,47.60
2018-02-07T14:31:56.734Z,47.95
2018-02-07T14:34:23.207Z,44.03
2018-02-07T14:36:49.755Z,43.75
2018-02-07T14:39:16.259Z,48.97
2018-02-07T14:41:42.748Z,41.00
2018-02-07T14:44:10.038Z,40.88
2018-02-07T14:46:36.487Z,38.25
2018-02-07T14:49:03.708Z,40.67
2018-02-07T14:51:30.328Z,37.25
2018-02-07T14:53:57.510Z,36.58
2018-02-07T14:56:24.000Z,37.85
2018-02-07T14:58:50.444Z,36.63
2018-02-07T15:01:16.893Z,40.83
2018-02-07T15:03:43.325Z,35.75
2018-02-07T15:06:09.751Z,39.08
2018-02-07T15:08:37.804Z,38.58
2018-02-07T15:11:04.231Z,37.55
2018-02-07T15:13:30.677Z,36.72
2018-02-07T15:15:57.961Z,38.83
2018-02-07T15:18:24.515Z,40.55
2018-02-07T15:20:51.789Z,38.40
2018-02-07T15:23:19.033Z,38.10
2018-02-07T15:25:45.519Z,37.17
2018-02-07T15:28:12.793Z,38.28
2018-02-07T15:30:40.648Z,38.30
2018-02-07T15:33:07.150Z,37.50
2018-02-07T15:35:35.639Z,36.80
2018-02-07T15:38:02.912Z,38.67
2018-02-07T15:40:30.105Z,37.78
2018-02-07T15:42:56.643Z,38.95
2018-02-07T15:45:23.839Z,36.30
2018-02-07T15:47:50.375Z,35.08
2018-02-07T15:50:17.580Z,36.90
2018-02-07T15:52:44.042Z,37.13
2018-02-07T15:55:10.492Z,39.87
2018-02-07T15:57:37.017Z,51.00
2018-02-07T16:00:03.678Z,51.25
2018-02-07T16:02:30.955Z,42.08
2018-02-07T16:04:58.226Z,40.83
2018-02-07T16:07:25.413Z,38.75
2018-02-07T16:09:51.957Z,37.63
2018-02-07T16:12:19.100Z,38.38
2018-02-07T16:14:46.264Z,37.43
2018-02-07T16:17:12.962Z,41.15
2018-02-07T16:19:40.112Z,40.90
2018-02-07T16:22:07.408Z,40.92
2018-02-07T16:24:34.727Z,39.17
2018-02-07T16:27:01.241Z,38.42
2018-02-07T16:29:28.423Z,39.20
2018-02-07T16:31:54.873Z,38.63
2018-02-07T16:34:22.061Z,38.50
2018-02-07T16:36:48.569Z,40.12
2018-02-07T16:39:15.964Z,39.65
2018-02-07T16:41:42.432Z,43.43
2018-02-07T16:44:11.627Z,44.05
2018-02-07T16:46:38.107Z,45.97
2018-02-07T16:49:05.302Z,50.85
2018-02-07T16:51:31.837Z,41.78
2018-02-07T16:53:59.029Z,43.47
2018-02-07T16:56:26.293Z,41.83
2018-02-07T16:58:52.844Z,46.65
2018-02-07T17:01:19.400Z,40.90
2018-02-07T17:03:46.677Z,41.80
2018-02-07T17:06:13.335Z,41.35
2018-02-07T17:08:39.798Z,41.05
2018-02-07T17:11:06.354Z,40.28
2018-02-07T17:13:33.628Z,41.25
2018-02-07T17:16:00.182Z,42.75
2018-02-07T17:18:27.457Z,41.63
2018-02-07T17:20:54.126Z,45.12
2018-02-07T17:23:20.676Z,43.38
2018-02-07T17:25:47.953Z,43.60
2018-02-07T17:28:15.146Z,48.03
2018-02-07T17:30:41.665Z,45.90
2018-02-07T17:33:08.837Z,48.10
2018-02-07T17:35:36.127Z,48.58
2018-02-07T17:38:03.310Z,48.05
2018-02-07T17:40:29.727Z,47.33
2018-02-07T17:42:56.212Z,47.13
2018-02-07T17:45:24.578Z,48.63
2018-02-07T17:47:51.012Z,48.25
2018-02-07T17:50:17.525Z,46.78
2018-02-07T17:52:43.957Z,48.13
2018-02-07T17:55:10.374Z,53.17
2018-02-07T17:57:36.893Z,71.07
2018-02-07T18:00:03.562Z,55.42
2018-02-07T18:02:30.110Z,49.35
2018-02-07T18:04:56.620Z,48.87
2018-02-07T18:07:23.726Z,53.92
2018-02-07T18:09:51.012Z,48.40
2018-02-07T18:12:17.574Z,45.92
2018-02-07T18:14:45.055Z,46.90
2018-02-07T18:17:11.615Z,47.20
2018-02-07T18:19:38.167Z,47.45
2018-02-07T18:22:05.443Z,47.22
2018-02-07T18:24:32.103Z,49.65
2018-02-07T18:26:58.764Z,49.58
2018-02-07T18:29:25.952Z,48.40
2018-02-07T18:31:52.408Z,49.30
2018-02-07T18:34:18.951Z,47.97
2018-02-07T18:36:45.391Z,47.83
2018-02-07T18:39:12.579Z,49.10
2018-02-07T18:41:39.751Z,50.60
2018-02-07T18:44:07.023Z,49.80
2018-02-07T18:46:33.525Z,49.15
2018-02-07T18:49:00.040Z,50.35
2018-02-07T18:51:27.218Z,49.63
2018-02-07T18:53:53.651Z,49.20
2018-02-07T18:56:20.944Z,54.97
2018-02-07T18:58:48.215Z,52.47
2018-02-07T19:01:14.778Z,49.22
2018-02-07T19:03:41.435Z,50.00
2018-02-07T19:06:08.710Z,49.58
2018-02-07T19:08:35.129Z,51.45
2018-02-07T19:11:01.724Z,54.60
2018-02-07T19:13:28.903Z,49.10
2018-02-07T19:15:55.332Z,50.03
2018-02-07T19:18:22.507Z,50.05
2018-02-07T19:20:49.799Z,54.83
2018-02-07T19:23:16.966Z,55.65
2018-02-07T19:25:44.247Z,54.77
2018-02-07T19:28:10.718Z,51.80
2018-02-07T19:30:37.226Z,56.20
2018-02-07T19:33:07.449Z,53.38
2018-02-07T19:35:33.890Z,57.65
2018-02-07T19:38:00.412Z,61.88
2018-02-07T19:40:27.690Z,56.55
2018-02-07T19:42:54.961Z,56.10
2018-02-07T19:45:22.302Z,55.80
2018-02-07T19:47:48.895Z,55.45
2018-02-07T19:50:16.125Z,56.50
2018-02-07T19:52:42.626Z,53.05
2018-02-07T19:55:09.900Z,55.85
2018-02-07T19:57:37.279Z,55.20
2018-02-07T20:00:04.154Z,55.50
2018-02-07T20:02:30.679Z,54.50
2018-02-07T20:04:57.259Z,55.10
2018-02-07T20:07:24.535Z,55.60
2018-02-07T20:09:50.995Z,53.10
2018-02-07T20:12:17.422Z,54.70
2018-02-07T20:14:43.884Z,53.83
2018-02-07T20:17:10.461Z,55.05
2018-02-07T20:19:37.940Z,56.10
2018-02-07T20:22:05.148Z,57.47
2018-02-07T20:24:31.597Z,63.75
2018-02-07T20:26:58.005Z,59.47
2018-02-07T20:29:25.297Z,64.57
2018-02-07T20:31:52.479Z,56.28
2018-02-07T20:34:19.028Z,55.08
2018-02-07T20:36:46.304Z,54.22
2018-02-07T20:39:12.964Z,55.30
2018-02-07T20:41:39.713Z,58.63
2018-02-07T20:44:07.006Z,60.38
2018-02-07T20:46:33.482Z,60.08
2018-02-07T20:49:00.016Z,55.15
2018-02-07T20:51:26.521Z,53.53
2018-02-07T20:53:53.029Z,53.87
2018-02-07T20:56:20.304Z,53.00
2018-02-07T20:58:47.581Z,52.75
2018-02-07T21:01:14.518Z,54.05
2018-02-07T21:03:41.002Z,54.80
2018-02-07T21:06:07.560Z,54.22
2018-02-07T21:08:34.736Z,53.63
2018-02-07T21:11:02.007Z,54.03
2018-02-07T21:13:29.692Z,54.40
2018-02-07T21:15:56.883Z,54.22
2018-02-07T21:18:23.290Z,57.13
2018-02-07T21:20:49.775Z,55.22
2018-02-07T21:23:16.930Z,55.58
2018-02-07T21:25:44.104Z,53.60
2018-02-07T21:28:11.392Z,53.47
2018-02-07T21:30:38.670Z,52.85
2018-02-07T21:33:05.943Z,54.92
2018-02-07T21:35:32.503Z,53.63
2018-02-07T21:37:59.489Z,54.40
2018-02-07T21:40:26.026Z,55.20
2018-02-07T21:42:53.300Z,55.75
2018-02-07T21:45:20.499Z,54.63
2018-02-07T21:47:47.556Z,53.58
2018-02-07T21:50:14.129Z,54.15
2018-02-07T21:52:40.658Z,53.78
2018-02-07T21:55:07.108Z,53.87
2018-02-07T21:57:34.290Z,55.03
2018-02-07T22:00:01.481Z,53.25
2018-02-07T22:02:27.907Z,54.90
2018-02-07T22:04:55.190Z,53.53
2018-02-07T22:07:21.634Z,55.80
2018-02-07T22:09:48.820Z,54.55
2018-02-07T22:12:15.377Z,55.08
2018-02-07T22:14:41.852Z,54.63
2018-02-07T22:17:08.390Z,55.72
2018-02-07T22:19:36.141Z,55.85
2018-02-07T22:22:02.563Z,54.55
2018-02-07T22:24:28.985Z,55.03
2018-02-07T22:26:56.262Z,55.70
2018-02-07T22:29:23.644Z,56.33
2018-02-07T22:31:50.174Z,55.08
2018-02-07T22:34:17.014Z,55.10
2018-02-07T22:36:43.431Z,55.35
2018-02-07T22:39:10.077Z,53.97
2018-02-07T22:41:36.821Z,54.40
2018-02-07T22:44:04.011Z,54.13
2018-02-07T22:46:30.576Z,52.67
2018-02-07T22:48:57.234Z,53.60
2018-02-07T22:51:23.898Z,53.22
2018-02-07T22:53:50.448Z,55.17
2018-02-07T22:56:17.009Z,52.67
2018-02-07T22:58:43.422Z,54.88
2018-02-07T23:01:10.125Z,53.72
2018-02-07T23:03:37.399Z,53.55
2018-02-07T23:06:04.575Z,55.22
2018-02-07T23:08:31.163Z,55.17
2018-02-07T23:10:57.614Z,55.97
2018-02-07T23:13:24.144Z,54.72
2018-02-07T23:15:51.604Z,56.03
2018-02-07T23:18:18.068Z,56.28
2018-02-07T23:20:45.352Z,54.28
2018-02-07T23:23:12.627Z,55.42
2018-02-07T23:25:39.808Z,54.95
2018-02-07T23:28:06.229Z,55.03
2018-02-07T23:30:32.697Z,54.92
2018-02-07T23:32:59.988Z,55.75
2018-02-07T23:35:26.476Z,55.42
2018-02-07T23:37:52.938Z,55.65
2018-02-07T23:40:19.459Z,54.67
2018-02-07T23:42:46.019Z,55.95
2018-02-07T23:45:13.196Z,55.60
2018-02-07T23:47:40.461Z,56.20
2018-02-07T23:50:07.741Z,53.95
2018-02-07T23:52:34.192Z,55.03
2018-02-07T23:55:00.752Z,56.10
2018-02-07T23:57:28.428Z,54.47
2018-02-07T23:59:55.708Z,55.42
